Pagina principale
METAR-TAF:

METAR-TAF

Aeroporti :

Hagåtña, Guam, Stati Uniti

Aeroporto Internazionale di Guam

latitudine: 13-29N, longitudine: 144-48E, altezza: 91 m

Osservazione

Il bollettino è stato emesso 37 minuti fa, alle 16:54 UTC
Vento 10 kt da est/nord-est
Temperature 27°C
Umidità 79%
Pressione 1011 hPa
Visibilità: 16.1 km
Poco nuvoloso ad un'altezza di 2400 ft

METAR: PGUM 191654Z 07010KT 10SM FEW024 27/23 A2985 RMK AO2 SLP100 T02720228

Ora: 03:31 (17:31 UTC)

Previsione

Il bollettino è stato emesso 6 ore e 11 minuti fa, alle 11:20 UTC
Previsione valida dal 19 alle 12 UTC al 20 alle 18 UTC
Vento 11 kt da est
Visibilità: 10 km
Nubi sparse ad un'altezza di 2500 ft

TAF: PGUM 191120Z 1912/2018 08011KT P6SM SCT025

Osservazioni e previsioni meteorologiche di più di 4000 aeroporti (messaggi METAR e TAF).

Le stazioni disponibili sono rappresentate dai dischi gialli e rossi sulla carta.

Puntare il mouse per vedere il nome della stazione.

Clicca sopra per visualizzare le osservazioni e previsioni meteorologiche.

Per cambiare la mappa : fare clic sui pulsanti verdi con una croce nera per ingrandire, il pulsante verde con un trattino per diminuire, o sulla freccia verde per le mappe adiacenti.


METAR-TAF: